SVMISVBM

Guest
Details From SVMI - Caracas Simon Bolivar Intl
To SVBM - BARQUISIMETO INTL
Flight Number -
Tags generated
Created
Modified
Stats Distance 144 nm / 267 km
Max Altitude 10,000 ft / 3,048 m
Waypoints 3
Social Downloads 0
Likes 0
Share VATSIM

Download

Looking for another format? Having issues loading an existing format? Contact us
Advertisement - Login to hide

Notes

Basic altitude profile: - Ascent Rate: 2500ft/min - Ascent Speed: 250kts - Cruise Altitude: 35000ft - Cruise Speed: 420kts - Descent Rate: 1500ft/min - Descent Speed: 250kts Options: - Use NATs: yes - Use PACOTS: yes - Use low airways: yes - Use high airways: yes

Route

SVMI KERON SVBM

ID Type Via Altitude (ft/m) Position (lat/lon) Dist (leg/tot) Name
O SVMI APT - 0 / 0 10.60312 / -66.99059 - / 0 nm Caracas Simon Bolivar Intl
KERON FIX - 10,000 / 3,048 10.25981 / -68.59847 97 / 97 nm
O SVBM APT - 0 / 0 10.04235 / -69.35886 46 / 143 nm BARQUISIMETO INTL

Altitude Profile

Advertisement - Login to hide

SVMI

Details ICAO SVMI (CCS)
Name Maiquetia "Simon Bolivar" Intl
Region Venezuela
Timezone America/Caracas (UTC-4.0)
Stats Elevation 236 ft / 72 m (AMSL)
Location 10.603200° -66.990400°
Runways 2
Magnetic Variation 12.412° W

METAR

SVMI 252100Z 11002KT 9999 BKN016 23/22 Q1008

Decode

TAF

TAF SVMI 251600Z 2518/2618 22009KT 9999 BKN016 TX31/1800Z TN24/0900Z TEMPO 2518/2522 09005KT 9000 DZ BKN016

Decode

Departure Runways

ID Width Length Bearing (true/mag) Surface Threshold Overrun Markings Lighting
09 151 ft / 46 m 9,523 ft / 2,903 m 75.94° / 88.36° ASPHALT 0 ft / 0 m 0 ft / 0 m VISUAL EDGE THRESHOLD
10 151 ft / 46 m 11,494 ft / 3,503 m 88.13° / 100.54° ASPHALT 0 ft / 0 m 187 ft / 57 m PREC-APP CENTERLINE EDGE THRESHOLD SALS REIL-OMNI
27 151 ft / 46 m 9,523 ft / 2,903 m 255.95° / 268.36° ASPHALT 0 ft / 0 m 0 ft / 0 m VISUAL EDGE THRESHOLD
28 151 ft / 46 m 11,494 ft / 3,503 m 268.13° / 280.54° ASPHALT 0 ft / 0 m 187 ft / 57 m PREC-APP CENTERLINE EDGE THRESHOLD REIL-OMNI

SVBM

Details ICAO SVBM (BRM)
Name BARQUISIMETO INTL
Region Venezuela
Timezone America/Caracas (UTC-4.0)
Stats Elevation 2,042 ft / 622 m (AMSL)
Location 10.042300° -69.358900°
Runways 1
Magnetic Variation 11.062° W

METAR

SVBM 252100Z 09005KT 9999 OVC010 23/22 Q1014

Decode

TAF

Not found

Destination Runways

ID Width Length Bearing (true/mag) Surface Threshold Overrun Markings Lighting
09 147 ft / 45 m 9,428 ft / 2,874 m 80.91° / 91.97° ASPHALT 0 ft / 0 m 0 ft / 0 m APP EDGE THRESHOLD ALSF-I
27 147 ft / 45 m 9,428 ft / 2,874 m 260.91° / 271.98° ASPHALT 1,541 ft / 470 m 315 ft / 96 m APP EDGE THRESHOLD

Popular Alternatives